createdAt,value
2019-02-20T00:00:31.548Z,35.47
2019-02-20T00:03:01.049Z,39.00
2019-02-20T00:05:30.163Z,44.13
2019-02-20T00:07:59.298Z,38.70
2019-02-20T00:10:28.518Z,38.30
2019-02-20T00:12:58.567Z,38.70
2019-02-20T00:15:29.763Z,46.07
2019-02-20T00:17:58.866Z,34.93
2019-02-20T00:20:27.965Z,39.73
2019-02-20T00:22:57.444Z,34.17
2019-02-20T00:25:26.706Z,35.37
2019-02-20T00:27:56.340Z,30.87
2019-02-20T00:30:25.548Z,43.90
2019-02-20T00:32:54.624Z,34.13
2019-02-20T00:35:23.983Z,37.13
2019-02-20T00:37:54.545Z,34.40
2019-02-20T00:40:24.445Z,36.80
2019-02-20T00:42:53.498Z,36.53
2019-02-20T00:45:44.473Z,38.67
2019-02-20T00:48:32.629Z,37.90
2019-02-20T00:51:39.250Z,33.03
2019-02-20T00:54:09.350Z,38.23
2019-02-20T00:56:38.633Z,41.53
2019-02-20T00:59:07.762Z,35.80
2019-02-20T01:01:38.200Z,47.87
2019-02-20T01:04:07.484Z,49.93
2019-02-20T01:06:38.697Z,54.17
2019-02-20T01:09:08.302Z,42.90
2019-02-20T01:11:37.431Z,43.73
2019-02-20T01:14:06.668Z,37.20
2019-02-20T01:16:36.046Z,43.37
2019-02-20T01:19:05.158Z,36.33
2019-02-20T01:21:34.298Z,41.40
2019-02-20T01:24:03.492Z,45.97
2019-02-20T01:26:32.825Z,39.20
2019-02-20T01:29:04.318Z,40.60
2019-02-20T01:31:35.734Z,42.57
2019-02-20T01:34:05.381Z,41.70
2019-02-20T01:36:34.739Z,42.70
2019-02-20T01:39:06.125Z,47.83
2019-02-20T01:41:35.263Z,41.47
2019-02-20T01:44:04.356Z,39.70
2019-02-20T01:46:33.659Z,51.07
2019-02-20T01:49:02.801Z,50.60
2019-02-20T01:51:34.222Z,48.90
2019-02-20T01:54:03.431Z,38.27
2019-02-20T01:56:32.654Z,38.63
2019-02-20T01:59:01.770Z,46.27
2019-02-20T02:01:30.858Z,40.87
2019-02-20T02:03:59.990Z,47.13
2019-02-20T02:06:29.088Z,55.30
2019-02-20T02:08:59.654Z,52.73
2019-02-20T02:11:29.014Z,40.87
2019-02-20T02:13:58.147Z,54.43
2019-02-20T02:16:27.294Z,48.00
2019-02-20T02:18:56.276Z,41.47
2019-02-20T02:21:25.299Z,46.70
2019-02-20T02:23:54.398Z,43.93
2019-02-20T02:26:24.695Z,41.67
2019-02-20T02:28:54.163Z,48.57
2019-02-20T02:31:24.662Z,39.03
2019-02-20T02:33:53.811Z,47.67
2019-02-20T02:36:22.983Z,45.13
2019-02-20T02:38:53.558Z,46.77
2019-02-20T02:41:22.793Z,46.57
2019-02-20T02:43:51.901Z,51.30
2019-02-20T02:46:21.497Z,47.03
2019-02-20T02:48:50.651Z,47.20
2019-02-20T02:51:19.751Z,54.97
2019-02-20T02:53:48.919Z,51.80
2019-02-20T02:56:17.992Z,55.30
2019-02-20T02:58:47.119Z,46.30
2019-02-20T03:01:16.141Z,49.70
2019-02-20T03:03:46.542Z,47.57
2019-02-20T03:06:15.667Z,49.07
2019-02-20T03:08:44.785Z,46.27
2019-02-20T03:11:13.901Z,43.30
2019-02-20T03:13:43.009Z,50.53
2019-02-20T03:16:12.075Z,40.97
2019-02-20T03:18:41.500Z,43.50
2019-02-20T03:21:10.830Z,50.73
2019-02-20T03:23:40.560Z,48.40
2019-02-20T03:26:09.863Z,45.30
2019-02-20T03:28:40.218Z,47.97
2019-02-20T03:31:09.630Z,36.50
2019-02-20T03:33:38.604Z,43.13
2019-02-20T03:36:07.668Z,42.00
2019-02-20T03:38:37.960Z,43.23
2019-02-20T03:41:07.437Z,43.40
2019-02-20T03:43:38.174Z,45.60
2019-02-20T03:46:09.358Z,28.93
2019-02-20T03:48:38.465Z,35.20
2019-02-20T03:51:09.326Z,33.30
2019-02-20T03:53:38.479Z,31.53
2019-02-20T03:56:07.639Z,34.40
2019-02-20T03:58:36.779Z,41.40
2019-02-20T04:01:06.101Z,44.93
2019-02-20T04:03:35.323Z,33.33
2019-02-20T04:06:04.427Z,32.67
2019-02-20T04:08:33.553Z,39.97
2019-02-20T04:11:02.657Z,38.33
2019-02-20T04:13:31.813Z,46.47
2019-02-20T04:16:00.950Z,39.40
2019-02-20T04:18:32.247Z,36.57
2019-02-20T04:21:01.370Z,36.40
2019-02-20T04:23:32.573Z,32.60
2019-02-20T04:26:01.910Z,46.80
2019-02-20T04:28:31.010Z,43.30
2019-02-20T04:31:01.351Z,33.73
2019-02-20T04:33:30.791Z,37.20
2019-02-20T04:35:59.991Z,33.47
2019-02-20T04:38:29.536Z,40.23
2019-02-20T04:40:58.638Z,32.83
2019-02-20T04:43:27.796Z,36.70
2019-02-20T04:45:56.938Z,35.90
2019-02-20T04:48:25.937Z,35.50
2019-02-20T04:50:54.995Z,30.77
2019-02-20T04:53:24.477Z,30.30
2019-02-20T04:55:53.495Z,30.37
2019-02-20T04:58:23.321Z,30.00
2019-02-20T05:00:52.490Z,25.27
2019-02-20T05:03:29.376Z,34.47
2019-02-20T05:05:58.572Z,30.73
2019-02-20T05:08:27.661Z,34.10
2019-02-20T05:10:56.739Z,32.23
2019-02-20T05:13:27.488Z,33.60
2019-02-20T05:15:56.691Z,28.27
2019-02-20T05:18:25.819Z,32.93
2019-02-20T05:20:54.976Z,34.77
2019-02-20T05:23:23.993Z,28.80
2019-02-20T05:25:53.136Z,20.70
2019-02-20T05:28:22.345Z,22.90
2019-02-20T05:30:51.543Z,29.47
2019-02-20T05:33:21.023Z,21.40
2019-02-20T05:35:50.903Z,26.90
2019-02-20T05:38:30.019Z,33.40
2019-02-20T05:41:00.261Z,26.83
2019-02-20T05:43:29.541Z,31.47
2019-02-20T05:46:00.319Z,29.60
2019-02-20T05:48:29.743Z,31.73
2019-02-20T05:51:00.053Z,29.10
2019-02-20T05:53:29.163Z,37.47
2019-02-20T05:55:58.225Z,38.13
2019-02-20T05:58:27.338Z,28.73
2019-02-20T06:00:56.490Z,33.50
2019-02-20T06:03:27.129Z,28.93
2019-02-20T06:05:56.697Z,26.80
2019-02-20T06:08:25.706Z,37.17
2019-02-20T06:10:54.913Z,28.57
2019-02-20T06:13:24.002Z,32.37
2019-02-20T06:15:53.119Z,27.73
2019-02-20T06:18:22.246Z,36.13
2019-02-20T06:20:51.441Z,33.90
2019-02-20T06:23:21.504Z,39.83
2019-02-20T06:25:50.630Z,37.43
2019-02-20T06:28:19.776Z,42.03
2019-02-20T06:30:49.235Z,37.00
2019-02-20T06:33:18.334Z,33.67
2019-02-20T06:35:47.527Z,37.63
2019-02-20T06:38:16.743Z,38.30
2019-02-20T06:40:45.912Z,32.30
2019-02-20T06:43:16.257Z,33.70
2019-02-20T06:45:45.532Z,26.53
2019-02-20T06:48:16.857Z,37.87
2019-02-20T06:50:46.083Z,34.07
2019-02-20T06:53:16.486Z,34.57
2019-02-20T06:55:45.979Z,39.93
2019-02-20T06:58:15.479Z,39.77
2019-02-20T07:00:44.565Z,41.93
2019-02-20T07:03:24.405Z,41.97
2019-02-20T07:06:11.222Z,39.33
2019-02-20T07:09:29.887Z,39.70
2019-02-20T07:12:20.407Z,35.63
2019-02-20T07:15:33.657Z,38.77
2019-02-20T07:18:24.866Z,43.50
2019-02-20T07:21:33.948Z,37.37
2019-02-20T07:24:19.875Z,44.53
2019-02-20T07:27:07.448Z,34.10
2019-02-20T07:29:44.915Z,35.10
2019-02-20T07:32:17.968Z,41.97
2019-02-20T07:34:47.134Z,37.50
2019-02-20T07:37:16.281Z,38.03
2019-02-20T07:39:45.522Z,42.97
2019-02-20T07:42:14.724Z,42.37
2019-02-20T07:44:45.121Z,45.50
2019-02-20T07:47:14.274Z,40.53
2019-02-20T07:49:43.447Z,44.97
2019-02-20T07:52:12.547Z,49.80
2019-02-20T07:54:41.773Z,44.63
2019-02-20T07:57:10.919Z,49.47
2019-02-20T07:59:40.048Z,47.00
2019-02-20T08:02:09.321Z,50.33
2019-02-20T08:04:38.475Z,47.40
2019-02-20T08:07:08.805Z,48.77
2019-02-20T08:09:37.933Z,47.67
2019-02-20T08:12:08.769Z,37.73
2019-02-20T08:14:37.859Z,47.57
2019-02-20T08:17:06.978Z,51.17
2019-02-20T08:19:36.074Z,41.33
2019-02-20T08:22:08.290Z,45.83
2019-02-20T08:24:37.454Z,38.13
2019-02-20T08:27:06.563Z,43.57
2019-02-20T08:29:35.942Z,39.97
2019-02-20T08:32:05.106Z,41.97
2019-02-20T08:34:34.310Z,41.83
2019-02-20T08:37:03.480Z,36.47
2019-02-20T08:39:32.628Z,47.43
2019-02-20T08:42:01.726Z,41.27
2019-02-20T08:44:30.968Z,39.67
2019-02-20T08:47:00.087Z,42.03
2019-02-20T08:49:29.158Z,45.17
2019-02-20T08:51:58.278Z,35.40
2019-02-20T08:54:27.502Z,39.63
2019-02-20T08:56:56.623Z,44.17
2019-02-20T08:59:25.741Z,45.50
2019-02-20T09:01:55.003Z,42.67
2019-02-20T09:04:24.112Z,34.80
2019-02-20T09:06:53.548Z,37.47
2019-02-20T09:09:22.681Z,36.20
2019-02-20T09:11:52.349Z,45.07
2019-02-20T09:14:21.537Z,28.50
2019-02-20T09:16:50.723Z,34.97
2019-02-20T09:19:19.770Z,33.07
2019-02-20T09:21:48.886Z,35.33
2019-02-20T09:24:18.311Z,33.93
2019-02-20T09:26:50.227Z,31.53
2019-02-20T09:29:19.374Z,28.47
2019-02-20T09:31:48.533Z,34.73
2019-02-20T09:34:18.184Z,37.50
2019-02-20T09:36:47.811Z,32.00
2019-02-20T09:39:45.145Z,35.13
2019-02-20T09:42:17.464Z,40.90
2019-02-20T09:44:47.956Z,36.87
2019-02-20T09:47:17.826Z,31.63
2019-02-20T09:49:47.267Z,33.13
2019-02-20T09:52:16.682Z,32.53
2019-02-20T09:54:45.952Z,28.40
2019-02-20T09:57:17.598Z,28.17
2019-02-20T09:59:46.791Z,31.27
2019-02-20T10:02:15.910Z,31.70
2019-02-20T10:04:45.153Z,34.63
2019-02-20T10:07:14.459Z,30.37
2019-02-20T10:09:43.560Z,29.20
2019-02-20T10:12:13.773Z,28.13
2019-02-20T10:14:43.216Z,25.03
2019-02-20T10:17:12.336Z,23.03
2019-02-20T10:19:41.469Z,30.60
2019-02-20T10:22:10.713Z,25.70
2019-02-20T10:24:39.822Z,28.73
2019-02-20T10:27:09.023Z,30.77
2019-02-20T10:29:38.131Z,28.50
2019-02-20T10:32:07.243Z,28.50
2019-02-20T10:34:37.475Z,22.73
2019-02-20T10:37:06.981Z,24.20
2019-02-20T10:39:36.132Z,26.97
2019-02-20T10:42:05.381Z,26.50
2019-02-20T10:44:34.490Z,30.57
2019-02-20T10:47:04.662Z,28.87
2019-02-20T10:49:36.128Z,26.53
2019-02-20T10:52:05.288Z,29.60
2019-02-20T10:54:35.782Z,25.20
2019-02-20T10:57:04.994Z,27.23
2019-02-20T10:59:34.319Z,22.60
2019-02-20T11:02:03.743Z,27.27
2019-02-20T11:04:32.812Z,21.87
2019-02-20T11:07:01.932Z,29.60
2019-02-20T11:09:31.921Z,43.07
2019-02-20T11:12:01.075Z,24.07
2019-02-20T11:14:30.210Z,24.87
2019-02-20T11:16:59.635Z,28.40
2019-02-20T11:19:28.729Z,28.67
2019-02-20T11:21:57.964Z,26.73
2019-02-20T11:24:27.131Z,24.53
2019-02-20T11:26:56.233Z,26.73
2019-02-20T11:29:25.376Z,25.93
2019-02-20T11:31:56.576Z,27.63
2019-02-20T11:34:26.009Z,34.17
2019-02-20T11:36:55.142Z,31.90
2019-02-20T11:39:24.230Z,23.33
2019-02-20T11:41:55.657Z,23.07
2019-02-20T11:44:25.979Z,26.07
2019-02-20T11:46:56.826Z,24.90
2019-02-20T11:49:27.667Z,23.37
2019-02-20T11:51:56.745Z,29.03
2019-02-20T11:54:25.890Z,25.77
2019-02-20T11:56:55.328Z,23.97
2019-02-20T11:59:24.443Z,29.47
2019-02-20T12:01:55.832Z,24.03
2019-02-20T12:04:25.238Z,24.33
2019-02-20T12:06:54.630Z,28.73
2019-02-20T12:09:23.771Z,27.17
2019-02-20T12:11:54.077Z,27.57
2019-02-20T12:14:24.484Z,30.07
2019-02-20T12:16:54.168Z,24.60
2019-02-20T12:19:23.667Z,23.57
2019-02-20T12:21:52.820Z,20.27
2019-02-20T12:24:22.014Z,27.93
2019-02-20T12:26:55.810Z,24.13
2019-02-20T12:29:27.274Z,20.00
2019-02-20T12:31:58.128Z,22.27
2019-02-20T12:34:27.294Z,25.53
2019-02-20T12:36:56.878Z,21.37
2019-02-20T12:39:27.674Z,23.20
2019-02-20T12:41:57.003Z,25.50
2019-02-20T12:44:27.236Z,21.63
2019-02-20T12:46:59.864Z,22.43
2019-02-20T12:49:30.566Z,23.53
2019-02-20T12:52:00.142Z,21.00
2019-02-20T12:54:29.523Z,18.27
2019-02-20T12:57:00.409Z,17.10
2019-02-20T12:59:29.557Z,19.77
2019-02-20T13:01:58.687Z,21.67
2019-02-20T13:04:28.054Z,19.13
2019-02-20T13:06:59.568Z,20.43
2019-02-20T13:09:28.156Z,21.83
2019-02-20T13:11:57.321Z,21.13
2019-02-20T13:14:26.505Z,17.10
2019-02-20T13:16:55.791Z,21.37
2019-02-20T13:19:24.917Z,22.33
2019-02-20T13:21:56.700Z,16.93
2019-02-20T13:24:25.895Z,16.10
2019-02-20T13:26:55.027Z,17.17
2019-02-20T13:29:24.088Z,22.07
2019-02-20T13:31:53.302Z,19.93
2019-02-20T13:34:22.441Z,22.90
2019-02-20T13:36:51.561Z,19.97
2019-02-20T13:39:23.334Z,15.20
2019-02-20T13:41:53.221Z,15.67
2019-02-20T13:44:22.823Z,12.50
2019-02-20T13:46:52.038Z,11.63
2019-02-20T13:49:21.207Z,14.27
2019-02-20T13:51:50.421Z,14.53
2019-02-20T13:54:20.724Z,12.23
2019-02-20T13:56:51.380Z,15.73
2019-02-20T13:59:20.573Z,12.23
2019-02-20T14:01:49.825Z,17.30
2019-02-20T14:04:21.867Z,15.57
2019-02-20T14:06:51.072Z,17.50
2019-02-20T14:09:20.589Z,13.80
2019-02-20T14:11:51.905Z,12.03
2019-02-20T14:14:21.109Z,15.70
2019-02-20T14:16:50.421Z,11.27
2019-02-20T14:19:19.613Z,15.50
2019-02-20T14:21:49.162Z,13.77
2019-02-20T14:24:18.409Z,17.67
2019-02-20T14:26:47.938Z,13.10
2019-02-20T14:29:17.594Z,10.70
2019-02-20T14:31:53.307Z,12.10
2019-02-20T14:34:22.519Z,10.80
2019-02-20T14:36:58.603Z,12.87
2019-02-20T14:39:31.488Z,12.80
2019-02-20T14:42:11.762Z,16.17
2019-02-20T14:44:41.041Z,12.30
2019-02-20T14:47:10.230Z,14.50
2019-02-20T14:49:39.450Z,8.53
2019-02-20T14:52:08.688Z,10.97
2019-02-20T14:54:37.894Z,10.17
2019-02-20T14:57:07.111Z,13.13
2019-02-20T14:59:36.848Z,10.57
2019-02-20T15:02:06.454Z,15.40
2019-02-20T15:04:35.681Z,9.30
2019-02-20T15:07:05.075Z,9.73
2019-02-20T15:09:34.282Z,9.33
2019-02-20T15:12:03.588Z,13.30
2019-02-20T15:14:34.589Z,15.80
2019-02-20T15:17:04.044Z,12.23
2019-02-20T15:19:33.319Z,11.83
2019-02-20T15:22:02.653Z,13.77
2019-02-20T15:24:31.877Z,8.43
2019-02-20T15:27:01.103Z,13.57
2019-02-20T15:29:30.647Z,12.00
2019-02-20T15:31:59.880Z,15.80
2019-02-20T15:34:29.117Z,11.90
2019-02-20T15:36:58.326Z,13.17
2019-02-20T15:39:27.531Z,14.37
2019-02-20T15:41:56.731Z,8.63
2019-02-20T15:44:26.384Z,11.10
2019-02-20T15:46:55.557Z,17.83
2019-02-20T15:49:24.809Z,14.43
2019-02-20T15:51:54.066Z,13.57
2019-02-20T15:54:23.317Z,11.47
2019-02-20T15:56:52.538Z,10.47
2019-02-20T15:59:21.731Z,11.90
2019-02-20T16:01:51.093Z,12.80
2019-02-20T16:04:20.234Z,14.47
2019-02-20T16:06:49.524Z,12.17
2019-02-20T16:09:18.774Z,12.30
2019-02-20T16:11:53.084Z,15.10
2019-02-20T16:14:22.246Z,21.50
2019-02-20T16:16:51.497Z,13.73
2019-02-20T16:19:20.680Z,11.37
2019-02-20T16:21:49.939Z,18.87
2019-02-20T16:24:19.225Z,14.70
2019-02-20T16:26:48.550Z,15.07
2019-02-20T16:29:17.815Z,13.50
2019-02-20T16:31:47.440Z,14.10
2019-02-20T16:34:16.914Z,13.97
2019-02-20T16:36:46.303Z,9.93
2019-02-20T16:39:15.527Z,13.40
2019-02-20T16:41:44.856Z,11.23
2019-02-20T16:44:14.289Z,13.67
2019-02-20T16:46:43.986Z,11.07
2019-02-20T16:49:13.284Z,13.40
2019-02-20T16:51:42.746Z,14.90
2019-02-20T16:54:12.183Z,13.97
2019-02-20T16:56:41.473Z,15.33
2019-02-20T16:59:10.704Z,20.17
2019-02-20T17:01:39.996Z,16.53
2019-02-20T17:04:09.235Z,20.53
2019-02-20T17:06:38.478Z,16.67
2019-02-20T17:09:08.127Z,17.37
2019-02-20T17:11:37.362Z,16.33
2019-02-20T17:14:06.583Z,17.63
2019-02-20T17:16:35.806Z,17.30
2019-02-20T17:19:04.983Z,16.53
2019-02-20T17:21:34.284Z,21.20
2019-02-20T17:24:04.646Z,16.87
2019-02-20T17:26:33.970Z,20.93
2019-02-20T17:29:05.256Z,27.87
2019-02-20T17:31:34.888Z,23.33
2019-02-20T17:34:04.095Z,22.10
2019-02-20T17:36:33.249Z,27.80
2019-02-20T17:39:02.530Z,26.87
2019-02-20T17:41:31.762Z,29.37
2019-02-20T17:44:01.018Z,30.67
2019-02-20T17:46:30.310Z,27.47
2019-02-20T17:48:59.394Z,28.80
2019-02-20T17:51:29.756Z,34.13
2019-02-20T17:53:58.966Z,33.77
2019-02-20T17:56:30.383Z,31.50
2019-02-20T17:58:59.529Z,28.80
2019-02-20T18:01:29.320Z,31.30
2019-02-20T18:04:08.835Z,32.13
2019-02-20T18:06:38.097Z,33.17
2019-02-20T18:09:07.883Z,32.37
2019-02-20T18:11:37.023Z,32.30
2019-02-20T18:14:06.158Z,26.97
2019-02-20T18:16:35.308Z,26.03
2019-02-20T18:19:04.391Z,31.17
2019-02-20T18:21:33.559Z,26.53
2019-02-20T18:24:02.692Z,24.80
2019-02-20T18:26:31.803Z,28.30
2019-02-20T18:29:02.060Z,30.93
2019-02-20T18:31:31.619Z,29.10
2019-02-20T18:34:01.388Z,30.03
2019-02-20T18:36:32.833Z,31.60
2019-02-20T18:39:02.403Z,34.37
2019-02-20T18:41:31.565Z,34.03
2019-02-20T18:44:01.761Z,34.70
2019-02-20T18:46:30.930Z,34.07
2019-02-20T18:49:01.761Z,35.10
2019-02-20T18:51:30.901Z,34.70
2019-02-20T18:54:00.031Z,24.97
2019-02-20T18:56:31.161Z,27.47
2019-02-20T18:59:01.749Z,27.63
2019-02-20T19:01:30.845Z,28.10
2019-02-20T19:04:01.391Z,29.47
2019-02-20T19:06:30.556Z,36.80
2019-02-20T19:09:17.817Z,31.83
2019-02-20T19:12:13.772Z,34.27
2019-02-20T19:15:11.949Z,33.57
2019-02-20T19:18:00.579Z,29.50
2019-02-20T19:20:57.268Z,29.20
2019-02-20T19:24:19.857Z,31.50
2019-02-20T19:26:56.490Z,31.47
2019-02-20T19:30:21.247Z,28.77
2019-02-20T19:33:27.267Z,29.97
2019-02-20T19:36:29.263Z,28.37
2019-02-20T19:39:27.798Z,31.50
2019-02-20T19:42:32.225Z,32.10
2019-02-20T19:45:27.949Z,31.97
2019-02-20T19:48:29.479Z,29.07
2019-02-20T19:51:25.037Z,30.00
2019-02-20T19:54:36.941Z,28.70
2019-02-20T19:57:58.008Z,30.47
2019-02-20T20:01:02.915Z,35.10
2019-02-20T20:03:58.105Z,29.27
2019-02-20T20:06:53.051Z,35.03
2019-02-20T20:09:50.278Z,31.13
2019-02-20T20:13:03.269Z,33.47
2019-02-20T20:15:47.069Z,28.33
2019-02-20T20:18:44.894Z,31.17
2019-02-20T20:21:38.474Z,37.03
2019-02-20T20:24:43.794Z,25.53
2019-02-20T20:27:44.181Z,33.23
2019-02-20T20:30:39.960Z,26.33
2019-02-20T20:33:38.679Z,31.07
2019-02-20T20:36:55.235Z,32.13
2019-02-20T20:40:05.255Z,33.87
2019-02-20T20:43:16.018Z,29.30
2019-02-20T20:45:56.241Z,28.73
2019-02-20T20:48:57.725Z,29.30
2019-02-20T20:52:03.829Z,29.47
2019-02-20T20:55:00.734Z,34.97
2019-02-20T20:58:05.242Z,31.30
2019-02-20T21:01:21.460Z,34.80
2019-02-20T21:04:26.637Z,31.63
2019-02-20T21:07:26.639Z,29.77
2019-02-20T21:10:23.604Z,34.33
2019-02-20T21:13:23.852Z,26.17
2019-02-20T21:16:18.365Z,35.53
2019-02-20T21:19:23.248Z,41.60
2019-02-20T21:22:15.638Z,43.10
2019-02-20T21:25:08.991Z,41.20
2019-02-20T21:28:18.397Z,43.73
2019-02-20T21:31:04.562Z,47.53
2019-02-20T21:34:19.409Z,46.63
2019-02-20T21:37:19.567Z,44.63
2019-02-20T21:40:45.191Z,46.63
2019-02-20T21:43:51.620Z,49.30
2019-02-20T21:47:07.755Z,45.97
2019-02-20T21:50:01.409Z,45.97
2019-02-20T21:53:20.768Z,53.03
2019-02-20T21:56:14.741Z,53.93
2019-02-20T21:59:05.004Z,55.27
2019-02-20T22:02:39.886Z,51.43
2019-02-20T22:05:47.363Z,51.33
2019-02-20T22:08:56.592Z,58.63
2019-02-20T22:11:53.071Z,58.63
2019-02-20T22:14:58.092Z,59.27
2019-02-20T22:18:19.528Z,53.37
2019-02-20T22:21:22.322Z,56.13
2019-02-20T22:24:06.592Z,56.67
2019-02-20T22:27:23.954Z,58.37
2019-02-20T22:30:49.234Z,61.97
2019-02-20T22:33:41.632Z,62.57
2019-02-20T22:37:06.964Z,65.97
2019-02-20T22:40:01.317Z,58.53
2019-02-20T22:43:04.577Z,61.37
2019-02-20T22:46:02.422Z,64.47
2019-02-20T22:48:56.775Z,64.83
2019-02-20T22:51:35.741Z,55.10
2019-02-20T22:54:55.621Z,60.40
2019-02-20T22:58:12.768Z,56.83
2019-02-20T23:01:15.995Z,59.27
2019-02-20T23:04:41.413Z,59.13
2019-02-20T23:07:28.940Z,50.90
2019-02-20T23:10:24.304Z,50.27
2019-02-20T23:13:33.439Z,53.33
2019-02-20T23:16:02.576Z,58.73
2019-02-20T23:18:31.711Z,57.13
2019-02-20T23:21:00.880Z,58.80
2019-02-20T23:23:29.999Z,55.67
2019-02-20T23:25:59.092Z,51.87
2019-02-20T23:28:28.269Z,57.67
2019-02-20T23:30:57.410Z,52.27
2019-02-20T23:33:26.536Z,52.13
2019-02-20T23:35:55.665Z,56.37
2019-02-20T23:38:24.863Z,53.00
2019-02-20T23:40:54.036Z,52.53
2019-02-20T23:43:23.208Z,50.73
2019-02-20T23:45:52.714Z,56.37
2019-02-20T23:48:23.975Z,55.17
2019-02-20T23:50:53.034Z,57.20
2019-02-20T23:53:22.224Z,56.43
2019-02-20T23:55:51.339Z,54.00
2019-02-20T23:58:20.491Z,57.40
